This is the latest recevied weather packets stored in our database for station/object EB2GLU-13. If no packets are shown the sender has not sent any weather packets the latest 10 day(s).
| Time | Temp. | Humidity | Pressure | Rain* | Wind** | Luminosity | Snow |
|---|---|---|---|---|---|---|---|
| 1777222136 | 21.11° C | 68% | 1017.3 hPa | 0 mm | - | - | - |
| 1777221386 | 22.22° C | 65% | 1017.4 hPa | 0 mm | - | - | - |
| 1777220636 | 22.78° C | 64% | 1017 hPa | 0 mm | - | - | - |
| 1777219886 | 25° C | 58% | 1017.2 hPa | 0 mm | - | - | - |
| 1777219136 | 25° C | 59% | 1017.1 hPa | 0 mm | - | - | - |
| 1777218386 | 24.44° C | 60% | 1017.1 hPa | 0 mm | - | - | - |
| 1777217636 | 25° C | 58% | 1017.2 hPa | 0 mm | - | - | - |
| 1777216886 | 24.44° C | 61% | 1017 hPa | 0 mm | - | - | - |
| 1777216136 | 23.89° C | 61% | 1017.1 hPa | 0 mm | - | - | - |
| 1777215386 | 25.56° C | 57% | 1017.1 hPa | 0 mm | - | - | - |
| 1777214636 | 25° C | 58% | 1017.2 hPa | 0 mm | - | - | - |
| 1777213886 | 25° C | 58% | 1017.3 hPa | 0 mm | - | - | - |
| 1777213136 | 23.33° C | 63% | 1017.3 hPa | 0 mm | - | - | - |
| 1777212386 | 24.44° C | 59% | 1017.6 hPa | 0 mm | - | - | - |
| 1777211636 | 25° C | 58% | 1017.7 hPa | 0 mm | - | - | - |
| 1777210886 | 23.33° C | 63% | 1017.8 hPa | 0 mm | - | - | - |
| 1777210136 | 25° C | 57% | 1017.6 hPa | 0 mm | - | - | - |
| 1777209386 | 23.89° C | 60% | 1017.9 hPa | 0 mm | - | - | - |
| 1777208636 | 24.44° C | 57% | 1018.1 hPa | 0 mm | - | - | - |
| 1777207886 | 25° C | 57% | 1017.8 hPa | 0 mm | - | - | - |
| 1777207136 | 23.89° C | 59% | 1018.1 hPa | 0 mm | - | - | - |
| 1777206386 | 23.89° C | 59% | 1018 hPa | 0 mm | - | - | - |
| 1777205636 | 25.56° C | 54% | 1017.9 hPa | 0 mm | - | - | - |
* Rain latest hour (hover to see other rain measurements)
** Current wind speed in m/s (hover to see current wind gust speed)